Welcome to La Porte Aviation Services!

An aviation adventure awaits

Current Weather Conditions

Available data for KPPO from the past 2 hours
LA PORTE, IN
Metar
KPPO 152215Z AUTO 22012G22KT 10SM OVC029 18/13 A2974 RMK AO2 T01800125

22:15 UTC

Wind: 220° 12kt

Visibility: 10 SM

Sky: OVC 2900 ft

Temp: 18 deg C / 64.4 deg F

Dewpoint: 13 deg C / 55.4 deg F

Pressure: 29.74 inHg

Pireps (11)
LWA UA /OV PMM315025/TM 2200/FL170/TP B350/TA M11/IC TRACE RIME/RM BASE AT 145 CLEAR OF ICE
ORD UA /OV FINAL RWY27L/TM 2157/FLDRGD/TP A321/SK 032OVC035
ARP UAL1073 4213N 08757W 2133 F320 M50 260/086 TB NONE SK CLEAR IC NONE
ORD UA /OV IKK160015/TM 2130/FL270/TP B738/TB LGT CHOP/RM 260-280
MDW UA /OV KMDW/TM 2127/FL016/TP GLEX/WX FV03SM
ARP UAL1073 4224N 08632W 2122 F320 M50 260/077 TB NONE SK CLEAR IC NONE
ORD UA /OV ORD270010/TM 2106/FL077/TP B739/SK OVC077
ORD UA /OV RWY27L FINAL/TM 2101/FLDRGD/TP E55P/SK 022OVC
ORD UA /OV ORD045008/TM 2045/FL060/TP CRJ2/SK TOP060
GSH UA /OV GSH210015/TM 2045/FL300/TP B737/TB CONS LGT
ARP UAL240 4122N 08826W 2028 F380 M53 264/103 TB LIGHT SK CLEAR IC NONE RM B772 OV 4122N 08826W SMTH E OF JOT

Connect with us on Facebook!

Facebook By Weblizar Powered By Weblizar